createdAt,value
2023-02-01T00:01:09.560Z,97038.27
2023-02-01T00:03:37.169Z,97038.69
2023-02-01T00:06:04.876Z,97053.68
2023-02-01T00:08:32.283Z,97054.27
2023-02-01T00:11:04.555Z,97050.59
2023-02-01T00:13:34.357Z,97046.46
2023-02-01T00:16:10.847Z,97030.02
2023-02-01T00:18:38.579Z,97037.33
2023-02-01T00:21:06.148Z,97024.20
2023-02-01T00:23:35.643Z,97022.10
2023-02-01T00:26:04.568Z,97021.45
2023-02-01T00:28:32.461Z,97017.46
2023-02-01T00:31:00.278Z,97022.71
2023-02-01T00:33:29.267Z,97020.71
2023-02-01T00:36:04.520Z,97019.44
2023-02-01T00:38:32.238Z,97019.23
2023-02-01T00:41:08.490Z,97006.53
2023-02-01T00:43:36.231Z,97009.14
2023-02-01T00:46:04.389Z,97008.63
2023-02-01T00:48:32.088Z,97023.02
2023-02-01T00:51:08.780Z,97025.63
2023-02-01T00:53:36.952Z,97029.27
2023-02-01T00:56:05.113Z,97043.45
2023-02-01T00:58:33.703Z,97037.03
2023-02-01T01:01:11.029Z,97035.84
2023-02-01T01:03:40.782Z,97028.35
2023-02-01T01:06:11.564Z,97041.64
2023-02-01T01:08:39.828Z,97040.52
2023-02-01T01:11:16.275Z,97034.36
2023-02-01T01:13:43.887Z,97032.20
2023-02-01T01:16:12.638Z,97038.54
2023-02-01T01:18:40.379Z,97034.55
2023-02-01T01:21:09.970Z,97033.96
2023-02-01T01:23:38.227Z,97028.52
2023-02-01T01:26:15.953Z,97021.80
2023-02-01T01:28:43.751Z,97034.25
2023-02-01T01:31:12.899Z,97039.35
2023-02-01T01:33:40.634Z,97048.14
2023-02-01T01:36:12.432Z,97051.91
2023-02-01T01:38:41.358Z,97048.71
2023-02-01T01:41:10.766Z,97060.57
2023-02-01T01:43:59.730Z,97062.11
2023-02-01T01:46:42.252Z,97060.70
2023-02-01T01:49:18.805Z,97056.59
2023-02-01T01:51:54.102Z,97056.77
2023-02-01T01:54:27.316Z,97062.61
2023-02-01T01:57:01.985Z,97060.52
2023-02-01T01:59:33.214Z,97061.09
2023-02-01T02:05:01.532Z,97065.05
2023-02-01T02:07:33.629Z,97068.44
2023-02-01T02:10:01.961Z,97072.14
2023-02-01T02:12:29.905Z,97071.59
2023-02-01T02:14:57.325Z,97072.31
2023-02-01T02:17:41.507Z,97066.82
2023-02-01T02:20:33.511Z,97070.05
2023-02-01T02:23:33.791Z,97074.72
2023-02-01T02:26:25.445Z,97067.06
2023-02-01T02:29:18.684Z,97080.39
2023-02-01T02:32:23.180Z,97082.06
2023-02-01T02:34:58.867Z,97091.24
2023-02-01T02:37:54.551Z,97095.20
2023-02-01T02:40:29.596Z,97090.58
2023-02-01T02:43:40.851Z,97092.99
2023-02-01T02:46:56.046Z,97094.85
2023-02-01T02:49:30.645Z,97096.95
2023-02-01T02:52:24.442Z,97101.09
2023-02-01T02:54:55.849Z,97097.63
2023-02-01T02:57:56.858Z,97100.98
2023-02-01T03:00:48.544Z,97102.04
2023-02-01T03:03:34.576Z,97095.38
2023-02-01T03:06:02.378Z,97097.04
2023-02-01T03:08:32.418Z,97102.05
2023-02-01T03:11:14.451Z,97099.75
2023-02-01T03:13:54.446Z,97099.74
2023-02-01T03:16:36.139Z,97104.77
2023-02-01T03:19:05.151Z,97107.80
2023-02-01T03:21:39.046Z,97110.91
2023-02-01T03:24:34.767Z,97114.36
2023-02-01T03:27:20.097Z,97111.98
2023-02-01T03:30:11.050Z,97109.13
2023-02-01T03:33:03.663Z,97115.56
2023-02-01T03:35:38.363Z,97116.07
2023-02-01T03:38:19.909Z,97120.29
2023-02-01T03:40:51.208Z,97118.08
2023-02-01T03:43:21.159Z,97120.98
2023-02-01T03:45:54.855Z,97113.91
2023-02-01T03:48:24.826Z,97120.59
2023-02-01T03:50:55.358Z,97119.39
2023-02-01T03:53:25.232Z,97119.15
2023-02-01T03:55:54.353Z,97119.09
2023-02-01T03:58:24.062Z,97121.55
2023-02-01T04:01:00.631Z,97121.06
2023-02-01T04:03:28.732Z,97116.04
2023-02-01T04:05:56.539Z,97121.56
2023-02-01T04:08:26.610Z,97120.52
2023-02-01T04:10:53.875Z,97118.58
2023-02-01T04:13:21.062Z,97116.62
2023-02-01T04:15:51.444Z,97115.20
2023-02-01T04:18:18.644Z,97119.48
2023-02-01T04:20:46.391Z,97121.45
2023-02-01T04:23:13.861Z,97120.69
2023-02-01T04:25:41.155Z,97122.74
2023-02-01T04:28:08.421Z,97123.27
2023-02-01T04:30:35.859Z,97126.76
2023-02-01T04:33:06.792Z,97126.93
2023-02-01T04:35:33.952Z,97122.23
2023-02-01T04:38:01.881Z,97125.86
2023-02-01T04:40:29.106Z,97126.64
2023-02-01T04:42:56.369Z,97124.27
2023-02-01T04:45:24.911Z,97126.80
2023-02-01T04:47:52.186Z,97118.73
2023-02-01T04:50:19.423Z,97122.23
2023-02-01T04:52:46.792Z,97126.54
2023-02-01T04:55:17.576Z,97121.42
2023-02-01T04:57:44.860Z,97121.80
2023-02-01T05:00:12.659Z,97121.58
2023-02-01T05:02:39.991Z,97127.22
2023-02-01T05:05:07.561Z,97127.45
2023-02-01T05:07:34.992Z,97127.21
2023-02-01T05:10:02.246Z,97132.24
2023-02-01T05:12:47.846Z,97130.14
2023-02-01T05:15:15.272Z,97130.07
2023-02-01T05:17:42.573Z,97132.52
2023-02-01T05:20:10.911Z,97129.02
2023-02-01T05:22:38.440Z,97128.02
2023-02-01T05:25:08.253Z,97128.48
2023-02-01T05:27:36.098Z,97127.57
2023-02-01T05:30:05.882Z,97131.69
2023-02-01T05:32:33.571Z,97129.88
2023-02-01T05:35:01.184Z,97122.67
2023-02-01T05:37:28.589Z,97124.25
2023-02-01T05:39:55.879Z,97123.81
2023-02-01T05:42:23.334Z,97121.77
2023-02-01T05:44:50.563Z,97124.02
2023-02-01T05:47:17.880Z,97124.02
2023-02-01T05:49:45.283Z,97123.95
2023-02-01T05:52:12.571Z,97123.56
2023-02-01T05:54:40.025Z,97125.33
2023-02-01T05:57:07.570Z,97122.77
2023-02-01T05:59:34.941Z,97130.06
2023-02-01T06:02:02.249Z,97128.01
2023-02-01T06:04:29.529Z,97131.50
2023-02-01T06:06:57.042Z,97135.67
2023-02-01T06:09:24.295Z,97135.83
2023-02-01T06:11:51.789Z,97131.70
2023-02-01T06:14:19.228Z,97129.64
2023-02-01T06:16:48.078Z,97128.87
2023-02-01T06:19:15.430Z,97127.45
2023-02-01T06:21:42.776Z,97126.38
2023-02-01T06:24:11.246Z,97125.70
2023-02-01T06:26:38.761Z,97128.14
2023-02-01T06:29:08.013Z,97129.00
2023-02-01T06:31:35.173Z,97133.56
2023-02-01T06:34:02.598Z,97133.02
2023-02-01T06:36:30.310Z,97133.65
2023-02-01T06:38:58.129Z,97139.35
2023-02-01T06:41:27.205Z,97134.95
2023-02-01T06:43:56.505Z,97137.19
2023-02-01T06:46:24.014Z,97139.44
2023-02-01T06:48:52.505Z,97140.36
2023-02-01T06:51:25.263Z,97138.96
2023-02-01T06:53:52.665Z,97142.17
2023-02-01T06:56:20.882Z,97138.20
2023-02-01T06:58:48.275Z,97137.55
2023-02-01T07:01:16.747Z,97141.86
2023-02-01T07:03:44.714Z,97136.98
2023-02-01T07:06:12.393Z,97136.29
2023-02-01T07:08:40.141Z,97132.31
2023-02-01T07:11:29.282Z,97131.17
2023-02-01T07:13:56.526Z,97119.77
2023-02-01T07:16:23.949Z,97123.98
2023-02-01T07:18:53.399Z,97123.04
2023-02-01T07:21:21.507Z,97121.63
2023-02-01T07:23:48.722Z,97120.42
2023-02-01T07:26:16.335Z,97119.76
2023-02-01T07:28:43.833Z,97114.63
2023-02-01T07:31:14.864Z,97116.00
2023-02-01T07:33:42.988Z,97113.27
2023-02-01T07:36:14.608Z,97112.42
2023-02-01T07:38:42.135Z,97114.27
2023-02-01T07:41:10.317Z,97117.89
2023-02-01T07:43:37.911Z,97120.56
2023-02-01T07:46:06.342Z,97122.97
2023-02-01T07:48:37.858Z,97118.06
2023-02-01T07:51:12.633Z,97121.09
2023-02-01T07:53:41.520Z,97113.14
2023-02-01T07:56:20.528Z,97114.24
2023-02-01T07:58:57.386Z,97117.66
2023-02-01T08:01:27.106Z,97120.88
2023-02-01T08:04:05.047Z,97119.34
2023-02-01T08:06:35.859Z,97112.80
2023-02-01T08:09:03.768Z,97113.09
2023-02-01T08:11:32.153Z,97114.64
2023-02-01T08:14:01.081Z,97112.63
2023-02-01T08:16:28.550Z,97112.33
2023-02-01T08:18:56.517Z,97110.55
2023-02-01T08:21:26.410Z,97111.17
2023-02-01T08:23:54.247Z,97112.11
2023-02-01T08:26:24.112Z,97114.36
2023-02-01T08:28:54.365Z,97116.65
2023-02-01T08:31:24.272Z,97116.76
2023-02-01T08:33:57.070Z,97108.80
2023-02-01T08:36:26.156Z,97111.08
2023-02-01T08:38:54.150Z,97105.50
2023-02-01T08:41:25.057Z,97103.20
2023-02-01T08:43:52.651Z,97102.40
2023-02-01T08:46:20.183Z,97101.58
2023-02-01T08:48:49.173Z,97096.10
2023-02-01T08:51:18.731Z,97097.06
2023-02-01T08:53:46.643Z,97094.80
2023-02-01T08:56:16.315Z,97099.33
2023-02-01T08:58:44.230Z,97096.82
2023-02-01T09:01:14.548Z,97102.35
2023-02-01T09:03:42.490Z,97104.13
2023-02-01T09:06:12.598Z,97108.13
2023-02-01T09:08:40.910Z,97109.20
2023-02-01T09:11:12.953Z,97106.34
2023-02-01T09:13:40.220Z,97102.79
2023-02-01T09:16:07.883Z,97105.73
2023-02-01T09:18:35.942Z,97099.96
2023-02-01T09:21:09.312Z,97099.72
2023-02-01T09:23:37.487Z,97095.40
2023-02-01T09:26:06.044Z,97095.81
2023-02-01T09:28:33.467Z,97086.66
2023-02-01T09:31:02.751Z,97086.27
2023-02-01T09:33:30.657Z,97086.52
2023-02-01T09:36:02.975Z,97090.33
2023-02-01T09:38:31.820Z,97084.10
2023-02-01T09:41:01.979Z,97086.26
2023-02-01T09:43:44.471Z,97087.31
2023-02-01T09:46:26.725Z,97085.04
2023-02-01T09:48:57.131Z,97075.34
2023-02-01T09:51:34.678Z,97073.26
2023-02-01T09:54:09.896Z,97068.95
2023-02-01T09:56:45.780Z,97066.52
2023-02-01T09:59:51.519Z,97055.38
2023-02-01T10:02:25.895Z,97048.31
2023-02-01T10:04:56.902Z,97055.00
2023-02-01T10:07:58.294Z,97052.40
2023-02-01T10:10:46.487Z,97050.10
2023-02-01T10:13:19.494Z,97044.97
2023-02-01T10:15:56.959Z,97042.42
2023-02-01T10:18:46.434Z,97039.98
2023-02-01T10:21:43.145Z,97039.10
2023-02-01T10:24:23.870Z,97036.48
2023-02-01T10:27:09.163Z,97030.45
2023-02-01T10:29:40.981Z,97028.70
2023-02-01T10:32:39.071Z,97031.23
2023-02-01T10:35:34.956Z,97031.80
2023-02-01T10:38:15.614Z,97036.70
2023-02-01T10:40:43.237Z,97041.23
2023-02-01T10:43:11.316Z,97034.45
2023-02-01T10:45:41.333Z,97036.34
2023-02-01T10:48:10.217Z,97034.74
2023-02-01T10:50:56.907Z,97036.67
2023-02-01T10:53:33.472Z,97031.36
2023-02-01T10:56:08.512Z,97030.11
2023-02-01T10:58:38.563Z,97031.41
2023-02-01T11:01:09.126Z,97033.22
2023-02-01T11:04:04.933Z,97032.72
2023-02-01T11:06:39.416Z,97030.38
2023-02-01T11:09:09.449Z,97031.88
2023-02-01T11:11:48.941Z,97027.97
2023-02-01T11:14:25.614Z,97023.64
2023-02-01T11:17:01.608Z,97026.74
2023-02-01T11:19:29.500Z,97020.80
2023-02-01T11:22:00.048Z,97018.27
2023-02-01T11:24:36.480Z,97019.16
2023-02-01T11:27:07.184Z,97017.30
2023-02-01T11:29:49.299Z,97015.07
2023-02-01T11:32:19.282Z,97007.13
2023-02-01T11:34:59.492Z,96999.93
2023-02-01T11:37:35.942Z,97010.55
2023-02-01T11:40:24.393Z,97002.39
2023-02-01T11:43:01.023Z,97006.05
2023-02-01T11:45:31.093Z,96999.69
2023-02-01T11:48:00.085Z,96998.97
2023-02-01T11:50:46.057Z,96999.10
2023-02-01T11:53:37.953Z,97002.23
2023-02-01T11:56:18.579Z,96997.54
2023-02-01T11:59:00.876Z,96996.86
2023-02-01T12:01:41.880Z,96991.48
2023-02-01T12:04:41.133Z,96992.31
2023-02-01T12:07:11.716Z,96985.81
2023-02-01T12:10:19.607Z,96984.75
2023-02-01T12:13:07.799Z,96984.52
2023-02-01T12:15:58.303Z,96978.10
2023-02-01T12:18:46.828Z,96977.56
2023-02-01T12:21:41.424Z,96977.08
2023-02-01T12:24:33.299Z,96970.61
2023-02-01T12:27:12.706Z,96967.01
2023-02-01T12:29:50.157Z,96964.80
2023-02-01T12:32:32.466Z,96963.24
2023-02-01T12:35:40.387Z,96958.80
2023-02-01T12:38:29.160Z,96956.13
2023-02-01T12:41:11.771Z,96953.08
2023-02-01T12:43:46.881Z,96949.84
2023-02-01T12:46:18.395Z,96946.06
2023-02-01T12:49:01.023Z,96945.88
2023-02-01T12:51:37.670Z,96939.84
2023-02-01T12:54:36.852Z,96936.05
2023-02-01T12:57:16.889Z,96932.02
2023-02-01T13:03:00.990Z,96923.30
2023-02-01T13:06:38.294Z,96924.05
2023-02-01T13:10:32.354Z,96922.77
2023-02-01T13:14:20.354Z,96921.40
2023-02-01T13:18:11.651Z,96919.34
2023-02-01T13:22:02.444Z,96917.72
2023-02-01T13:25:50.683Z,96916.48
2023-02-01T13:29:39.365Z,96914.63
2023-02-01T13:33:54.545Z,96913.92
2023-02-01T13:37:29.635Z,96910.05
2023-02-01T13:41:35.458Z,96911.33
2023-02-01T13:45:32.117Z,96913.93
2023-02-01T13:49:35.471Z,96904.55
2023-02-01T13:53:29.235Z,96911.67
2023-02-01T13:57:23.226Z,96918.42
2023-02-01T14:01:32.411Z,96915.27
2023-02-01T14:05:31.389Z,96911.07
2023-02-01T14:09:25.785Z,96906.23
2023-02-01T14:13:25.323Z,96905.77
2023-02-01T14:17:13.372Z,96903.36
2023-02-01T14:21:23.034Z,96904.66
2023-02-01T14:25:06.541Z,96908.73
2023-02-01T14:28:54.696Z,96906.20
2023-02-01T14:33:00.726Z,96912.38
2023-02-01T14:36:50.050Z,96913.38
2023-02-01T14:40:47.653Z,96913.98
2023-02-01T14:44:58.625Z,96913.36
2023-02-01T14:49:00.674Z,96910.00
2023-02-01T14:52:56.659Z,96905.23
2023-02-01T14:56:47.876Z,96906.86
2023-02-01T15:00:37.767Z,96904.48
2023-02-01T15:04:30.376Z,96907.20
2023-02-01T15:08:18.818Z,96909.27
2023-02-01T15:12:08.980Z,96913.42
2023-02-01T15:16:08.662Z,96915.27
2023-02-01T15:24:00.874Z,96926.67
2023-02-01T15:27:50.703Z,96921.85
2023-02-01T15:31:41.580Z,96926.61
2023-02-01T15:35:48.598Z,96935.11
2023-02-01T15:39:34.889Z,96939.36
2023-02-01T15:43:31.778Z,96941.21
2023-02-01T15:51:08.661Z,96953.26
2023-02-01T15:55:02.445Z,96958.35
2023-02-01T15:58:53.182Z,96962.37
2023-02-01T16:02:42.278Z,96966.44
2023-02-01T16:06:40.051Z,96970.20
2023-02-01T16:10:33.362Z,96970.34
2023-02-01T16:14:22.376Z,96973.69
2023-02-01T16:18:10.284Z,96969.95
2023-02-01T16:21:59.092Z,96965.41
2023-02-01T16:25:46.892Z,96970.46
2023-02-01T16:29:35.655Z,96974.65
2023-02-01T16:33:25.786Z,96977.58
2023-02-01T16:37:22.600Z,96976.92
2023-02-01T16:41:12.712Z,96984.20
2023-02-01T16:45:01.429Z,96992.48
2023-02-01T16:48:52.590Z,96988.48
2023-02-01T16:52:42.248Z,96999.66
2023-02-01T16:56:29.921Z,96986.67
2023-02-01T17:00:24.545Z,96987.17
2023-02-01T17:04:07.334Z,96985.18
2023-02-01T17:07:57.738Z,96987.64
2023-02-01T17:11:47.811Z,96990.21
2023-02-01T17:15:37.037Z,96989.93
2023-02-01T17:19:26.168Z,96989.02
2023-02-01T17:23:14.396Z,96992.34
2023-02-01T17:27:01.440Z,96990.92
2023-02-01T17:30:50.931Z,96983.14
2023-02-01T17:34:38.605Z,96990.39
2023-02-01T17:38:28.422Z,96994.62
2023-02-01T17:42:16.213Z,97002.70
2023-02-01T17:46:10.810Z,97000.36
2023-02-01T17:49:58.895Z,96997.83
2023-02-01T17:53:49.743Z,96996.87
2023-02-01T17:57:38.448Z,96994.85
2023-02-01T18:01:27.437Z,96990.81
2023-02-01T18:05:14.488Z,96988.12
2023-02-01T18:08:45.503Z,96985.50
2023-02-01T18:12:12.318Z,96981.23
2023-02-01T18:15:59.897Z,96976.34
2023-02-01T18:19:46.830Z,96976.70
2023-02-01T18:23:13.976Z,96972.02
2023-02-01T18:26:41.260Z,96979.21
2023-02-01T18:30:17.129Z,96978.80
2023-02-01T18:33:45.608Z,96973.70
2023-02-01T18:37:36.108Z,96969.31
2023-02-01T18:41:31.654Z,96965.73
2023-02-01T18:45:21.501Z,96962.54
2023-02-01T18:49:09.299Z,96964.11
2023-02-01T18:52:59.774Z,96963.08
2023-02-01T18:56:47.442Z,96959.71
2023-02-01T19:00:35.670Z,96957.55
2023-02-01T19:04:25.670Z,96947.51
2023-02-01T19:07:54.737Z,96944.65
2023-02-01T19:11:24.391Z,96944.70
2023-02-01T19:14:54.600Z,96937.75
2023-02-01T19:18:41.328Z,96936.37
2023-02-01T19:22:09.005Z,96930.04
2023-02-01T19:25:39.418Z,96929.29
2023-02-01T19:28:41.357Z,96923.85
2023-02-01T19:31:52.832Z,96925.73
2023-02-01T19:34:40.013Z,96920.34
2023-02-01T19:38:07.006Z,96921.23
2023-02-01T19:41:54.028Z,96916.66
2023-02-01T19:45:31.222Z,96916.53
2023-02-01T19:48:58.043Z,96914.66
2023-02-01T19:52:07.114Z,96914.92
2023-02-01T19:55:34.585Z,96909.43
2023-02-01T19:59:01.485Z,96907.98
2023-02-01T20:02:15.173Z,96906.57
2023-02-01T20:05:45.326Z,96908.91
2023-02-01T20:11:54.839Z,96910.61
2023-02-01T20:14:27.357Z,96908.30
2023-02-01T20:16:54.614Z,96898.75
2023-02-01T20:19:23.113Z,96903.83
2023-02-01T20:21:50.379Z,96903.56
2023-02-01T20:24:18.443Z,96896.54
2023-02-01T20:26:47.929Z,96886.77
2023-02-01T20:29:15.561Z,96887.02
2023-02-01T20:31:44.956Z,96886.06
2023-02-01T20:34:13.623Z,96882.91
2023-02-01T20:36:40.922Z,96875.73
2023-02-01T20:39:08.608Z,96877.33
2023-02-01T20:41:35.888Z,96877.21
2023-02-01T20:44:03.115Z,96868.88
2023-02-01T20:46:30.372Z,96863.15
2023-02-01T20:48:57.713Z,96858.45
2023-02-01T20:51:24.676Z,96852.50
2023-02-01T20:53:54.233Z,96846.17
2023-02-01T20:56:22.247Z,96844.94
2023-02-01T20:58:49.261Z,96845.37
2023-02-01T21:01:16.880Z,96839.83
2023-02-01T21:03:44.463Z,96842.04
2023-02-01T21:06:13.719Z,96838.60
2023-02-01T21:08:41.684Z,96837.48
2023-02-01T21:11:11.564Z,96834.31
2023-02-01T21:13:44.386Z,96832.63
2023-02-01T21:16:13.848Z,96833.77
2023-02-01T21:18:41.235Z,96834.41
2023-02-01T21:21:15.168Z,96833.41
2023-02-01T21:23:50.952Z,96826.34
2023-02-01T21:26:22.745Z,96822.16
2023-02-01T21:28:51.662Z,96823.05
2023-02-01T21:31:21.419Z,96826.00
2023-02-01T21:33:49.868Z,96817.81
2023-02-01T21:36:22.711Z,96814.23
2023-02-01T21:38:52.363Z,96814.62
2023-02-01T21:41:40.434Z,96807.30
2023-02-01T21:44:08.081Z,96799.08
2023-02-01T21:46:35.421Z,96796.66
2023-02-01T21:49:05.082Z,96799.44
2023-02-01T21:51:41.334Z,96798.31
2023-02-01T21:54:10.736Z,96796.50
2023-02-01T21:56:39.257Z,96791.16
2023-02-01T21:59:07.778Z,96793.30
2023-02-01T22:01:37.537Z,96790.00
2023-02-01T22:04:04.786Z,96789.65
2023-02-01T22:06:37.643Z,96791.42
2023-02-01T22:09:06.038Z,96792.85
2023-02-01T22:11:33.978Z,96797.08
2023-02-01T22:14:01.375Z,96792.27
2023-02-01T22:16:30.874Z,96785.00
2023-02-01T22:18:59.878Z,96780.84
2023-02-01T22:21:30.935Z,96780.86
2023-02-01T22:24:00.087Z,96776.15
2023-02-01T22:26:28.305Z,96770.23
2023-02-01T22:28:55.809Z,96767.02
2023-02-01T22:31:23.933Z,96762.20
2023-02-01T22:33:51.516Z,96759.58
2023-02-01T22:36:19.684Z,96757.69
2023-02-01T22:38:48.850Z,96752.58
2023-02-01T22:41:16.082Z,96751.13
2023-02-01T22:43:45.110Z,96752.41
2023-02-01T22:46:18.337Z,96752.42
2023-02-01T22:48:46.859Z,96749.36
2023-02-01T22:51:17.947Z,96751.29
2023-02-01T22:53:45.572Z,96751.48
2023-02-01T22:56:17.386Z,96752.64
2023-02-01T22:58:44.461Z,96758.02
2023-02-01T23:01:13.704Z,96758.52
2023-02-01T23:03:41.896Z,96761.90
2023-02-01T23:06:09.757Z,96761.77
2023-02-01T23:08:39.810Z,96768.40
2023-02-01T23:11:10.093Z,96771.31
2023-02-01T23:13:39.592Z,96777.11
2023-02-01T23:16:15.971Z,96776.39
2023-02-01T23:18:43.233Z,96784.05
2023-02-01T23:21:13.153Z,96781.20
2023-02-01T23:23:40.976Z,96779.73
2023-02-01T23:26:08.146Z,96780.95
2023-02-01T23:28:36.036Z,96784.02
2023-02-01T23:31:11.769Z,96786.16
2023-02-01T23:33:39.111Z,96783.02
2023-02-01T23:36:11.104Z,96781.89
2023-02-01T23:38:38.877Z,96787.24
2023-02-01T23:41:08.123Z,96782.05
2023-02-01T23:43:54.087Z,96780.08
2023-02-01T23:46:21.536Z,96780.77
2023-02-01T23:48:49.813Z,96785.77
2023-02-01T23:51:18.074Z,96782.71
2023-02-01T23:53:45.237Z,96786.15
2023-02-01T23:56:42.779Z,96781.20
2023-02-01T23:59:20.146Z,96786.29
